METAR Data
IDs: Format: Raw Decoded Include TAF

Data at: 0702 UTC 23 Feb 2019

KAMA 230653Z AUTO 14010KT 1/2SM R04/2200V2800FT FG VV002 04/04 A2967 RMK AO2 SLP042 T00390039
KAMA 230553Z 15013KT 1/2SM R04/2200V2800FT FG VV002 04/03 A2972 RMK AO2 SLP059 T00390033 10067 20033 401221006 58013
KAMA 230525Z 16008KT 1/2SM R04/P6000FT BR OVC002 04/03 A2972 RMK AO2 SFC VIS 2 1/2 T00390033
KAMA 230453Z 14021KT 5SM BR OVC003 04/03 A2974 RMK AO2 PK WND 13030/0424 SLP070 T00390028
KAMA 230353Z 13018G23KT 10SM OVC003 03/02 A2975 RMK AO2 SLP076 T00330022
KAMA 230303Z 12016KT 10SM OVC003 04/03 A2976 RMK AO2 T00390028
KAMA 230253Z 12019KT 10SM OVC004 04/02 A2976 RMK AO2 SLP078 T00390022 58006
KAMA 230246Z 12015KT 10SM OVC004 04/02 A2976 RMK AO2 T00390022
KAMA 230229Z 13020KT 10SM OVC005 04/02 A2976 RMK AO2 T00440022
KAMA 230153Z 13017KT 10SM OVC007 04/02 A2979 RMK AO2 SLP089 T00440022
KAMA 230053Z 13021KT 10SM OVC008 05/02 A2979 RMK AO2 SLP089 T00500022
KAMA 230030Z 13016KT 10SM BKN009 06/03 A2979 RMK AO2 T00560028
KAMA 230023Z 13016KT 10SM BKN010 06/03 A2979 RMK AO2 T00560028
KAMA 222353Z 12018KT 10SM CLR 07/03 A2978 RMK AO2 SLP081 T00670028 10122 20044 55008
KAMA 222253Z 13015KT 10SM CLR 12/02 A2978 RMK AO2 SLP075 T01170022
KAMA 222153Z 15011KT 10SM CLR 12/02 A2979 RMK AO2 SLP076 T01220022
KAMA 222053Z 14010KT 10SM CLR 10/03 A2980 RMK AO2 SLP088 T01000028 58033
KAMA 222036Z 14012KT 10SM SCT016 10/03 A2982 RMK AO2 T01000028
KAMA 222025Z 15011KT 10SM BKN016 09/02 A2982 RMK AO2 T00890022
KAMA 221953Z 16010KT 10SM OVC013 07/02 A2984 RMK AO2 SLP102 T00720022
KAMA 221901Z 18012KT 10SM OVC011 07/02 A2988 RMK AO2 T00670022
KAMA 221853Z 18011KT 10SM OVC009 06/02 A2989 RMK AO2 CIG 007V013 SLP119 T00610022
KAMA 221753Z 17011KT 10SM OVC006 04/03 A2991 RMK AO2 CIG 004V009 SLP132 T00440028 10044 20006 58009
KAMA 221740Z 16010KT 10SM OVC004 04/03 A2992 RMK AO2 CIG 003V008 T00390028
KAMA 221653Z 15012KT 2SM BR OVC002 03/02 A2994 RMK AO2 SFC VIS 3 SLP140 T00280022
KAMA 221553Z 15013KT 1/4SM R04/2600V5000FT BR VV002 01/01 A2995 RMK AO2 SFC VIS 1 SLP146 T00110011
KAMA 221540Z 16010KT 1/4SM R04/1400V2800FT FG VV002 01/01 A2996 RMK AO2 TWR VIS 1/4 T00110011
KAMA 221520Z 15014KT M1/4SM R04/0800V1000FT FG VV001 01/01 A2995 RMK AO2 TWR VIS 1/4 T00110006
KAMA 221453Z 15011KT 1/4SM R04/1000V1200FT FG VV002 01/01 A2994 RMK AO2 TWR VIS 1/4 SLP141 T00110006 53022
KAMA 221353Z 13009KT 1/4SM R04/1200V1400FT FG VV002 01/00 A2991 RMK AO2 TWR VIS 1/4 SLP128 T00060000
KAMA 221326Z 13013KT 1/4SM R04/1200V1400FT FG VV002 01/00 A2989 RMK AO2 T00060000
KAMA 221319Z 13013KT 1/4SM R04/1200V1600FT FG VV001 01/00 A2989 RMK AO2 T00060000
KAMA 221253Z 14011KT 1/4SM R04/1400V1800FT FG VV002 01/00 A2990 RMK AO2 TWR VIS 1/2 SLP121 T00060000
KAMA 221217Z 14014KT 1/4SM R04/1800V2200FT FG VV002 01/00 A2988 RMK AO2 TWR VIS 1/2 T00060000
KAMA 221153Z AUTO 14014KT 1/2SM R04/1800V2600FT FG VV002 01/00 A2987 RMK AO2 SLP108 T00060000 10017 21006 56013
KAMA 221115Z AUTO 13013KT 1/2SM R04/2200V4000FT FG OVC002 01/00 A2988 RMK AO2 T00060000
KAMA 221109Z AUTO 13014KT 1SM R04/3000V5500FT BR OVC002 01/00 A2988 RMK AO2 T00060000
KAMA 221053Z AUTO 15011KT 2SM R04/5500VP6000FT BR OVC002 01/00 A2989 RMK AO2 SLP112 T00060000
KAMA 221027Z AUTO 14012KT 2 1/2SM BR OVC003 01/00 A2990 RMK AO2 T00060000
KAMA 221012Z AUTO 14014KT 7SM OVC004 01/M01 A2989 RMK AO2 T00061006
KAMA 220953Z AUTO 14012KT 6SM BR OVC003 01/M01 A2990 RMK AO2 SLP110 T00061011
KAMA 220927Z AUTO 14020KT 7SM BKN003 BKN065 BKN120 00/M02 A2990 RMK AO2 T00001017
KAMA 220918Z AUTO 14014KT 8SM SCT003 BKN070 OVC110 M01/M02 A2990 RMK AO2 T10061022
KAMA 220853Z AUTO 16013KT 10SM BKN110 00/M02 A2992 RMK AO2 SLP119 T00001022 53007
KAMA 220753Z AUTO 14013KT 10SM BKN100 BKN120 01/M03 A2989 RMK AO2 SLP109 T00111028
KAMA 220653Z AUTO 14014KT 10SM SCT110 02/M03 A2988 RMK AO2 SLP105 T00171033
KAMA 220553Z AUTO 13011KT 10SM BKN120 01/M05 A2989 RMK AO2 SLP117 T00111050 10111 20011 401560006 51011
KAMA 220453Z 13019KT 10SM CLR 02/M05 A2989 RMK AO2 PK WND 13027/0401 SLP114 T00221050
KAMA 220353Z 13022KT 10SM CLR 03/M05 A2988 RMK AO2 PK WND 13028/0328 SLP114 T00331050
KAMA 220253Z 13019KT 10SM CLR 05/M04 A2986 RMK AO2 PK WND 12030/0156 SLP106 T00501039 53026
KAMA 220153Z 12022G28KT 10SM CLR 06/M03 A2982 RMK AO2 PK WND 12028/0153 SLP095 T00611028
KAMA 220053Z 12018KT 10SM CLR 08/M02 A2980 RMK AO2 PK WND 13027/2355 SLP082 T00831022
KAMA 212353Z 13020G29KT 10SM FEW090 11/M02 A2977 RMK AO2 PK WND 12029/2349 SLP070 T01111017 10156 20100 53003
KAMA 212253Z 15017KT 10SM CLR 14/M03 A2975 RMK AO2 PK WND 15030/2220 SLP058 T01391028
KAMA 212153Z AUTO 15020G25KT 10SM FEW070 16/M03 A2974 RMK AO2 PK WND 15031/2139 SLP052 T01561028
KAMA 212053Z 14025G30KT 10SM CLR 15/M03 A2976 RMK AO2 PK WND 14030/2046 SLP064 T01501028 56018
KAMA 211953Z 14022G32KT 10SM CLR 14/M04 A2977 RMK AO2 PK WND 15032/1948 SLP065 T01391039